Nearby METAR Reports

 

KCOQ - Cloquet, Minnesota, USA
Distance from station: S 10mi, 16km
Updated: Mon, 17-Jun-2024 8:35pm CDT
Clear
Clear
 Wind from E
Wind: E 7 mph , 11 km/h
Temperature: 61°F , 16°C
Dew Point: 52°F , 11°C
Humidity: 72%
Barometer: 29.82 inHg , 1009.8 hPa
Clouds: Clear
Visibility: 10 miles , 16 km
2024/06/18 01:35 KCOQ 180135Z AUTO 10006KT 10SM CLR 16/11 A2982 RMK AO2 TSNO
KDLH - Duluth, Minnesota, USA
Distance from station: E 13mi, 20km
Updated: Mon, 17-Jun-2024 7:55pm CDT
Clear
Clear
 Wind from E
Wind: E 12 mph , 19 km/h
Temperature: 61°F , 16°C
Dew Point: 52°F , 11°C
Humidity: 72%
Barometer: 29.82 inHg , 1009.8 hPa
Clouds: Clear
Visibility: 10 miles , 16 km
2024/06/18 00:55 KDLH 180055Z 10010KT 10SM CLR 16/11 A2982 RMK AO2 SLP100 T01610111
 
KSUW - Superior, Wisconsin, USA
Distance from station: ESE 21mi, 33km
Updated: Mon, 17-Jun-2024 8:35pm CDT
Clear
Clear
 Wind from E
Wind: E 7 mph , 11 km/h
Temperature: 57°F , 14°C
Dew Point: 52°F , 11°C
Humidity: 82%
Barometer: 29.83 inHg , 1010.2 hPa
Clouds: Clear
Visibility: 10 miles , 16 km
2024/06/18 01:35 KSUW 180135Z AUTO 09006KT 10SM CLR 14/11 A2983 RMK AO2 T01350106
KDYT - Duluth (sky Harb, Minnesota, USA
Distance from station: ESE 22mi, 36km
Updated: Mon, 17-Jun-2024 8:35pm CDT
Clear
Clear
 Wind from varies
Wind: varies 6 mph , 9 km/h
Temperature: 55°F , 13°C
Dew Point: 54°F , 12°C
Humidity: 94%
Barometer: 29.82 inHg , 1009.8 hPa
Clouds: Clear
Visibility: 10 miles , 16 km
2024/06/18 01:35 KDYT 180135Z AUTO VRB05KT 10SM CLR 13/12 A2982 RMK AO2
 
KTWM - Two Harbors, Minnesota, USA
Distance from station: ENE 36mi, 58km
Updated: Mon, 17-Jun-2024 8:35pm CDT
Clear
Clear
 Wind from ENE
Wind: ENE 5 mph , 7 km/h
Temperature: 59°F , 15°C
Dew Point: 54°F , 12°C
Humidity: 82%
Barometer: 29.83 inHg , 1010.2 hPa
Clouds: Clear
Visibility: 10 miles , 16 km
2024/06/18 01:35 KTWM 180135Z AUTO 06004KT 10SM CLR 15/12 A2983 RMK AO2
KEVM - Eveleth Muni, Minnesota, USA
Distance from station: N 39mi, 63km
Updated: Mon, 17-Jun-2024 8:35pm CDT
Clear
Clear
 Wind from SE
Wind: SE 6 mph , 9 km/h
Temperature: 63°F , 17°C
Dew Point: 50°F , 10°C
Humidity: 64%
Barometer: 29.85 inHg , 1010.8 hPa
Clouds: Clear
Visibility: 10 miles , 16 km
2024/06/18 01:35 KEVM 180135Z AUTO 14005KT 10SM CLR 17/10 A2985 RMK AO2 T01700100
 
KHIB - Hibbing, Minnesota, USA
Distance from station: NNW 41mi, 66km
Updated: Mon, 17-Jun-2024 7:53pm CDT
Clear
Clear
 Wind from SE
Wind: SE 9 mph , 15 km/h
Temperature: 64°F , 18°C
Dew Point: 45°F , 7°C
Humidity: 49%
Barometer: 29.81 inHg , 1009.5 hPa
Clouds: Clear
Visibility: 10 miles , 16 km
2024/06/18 00:53 KHIB 180053Z AUTO 14008KT 10SM CLR 18/07 A2981 RMK AO2 SLP097 T01780067
KHZX - Mcgregor/Iverson, Minnesota, USA
Distance from station: WSW 43mi, 69km
Updated: Mon, 17-Jun-2024 8:35pm CDT
Clear
Clear
 Wind from ESE
Wind: ESE 7 mph , 11 km/h
Temperature: 64°F , 18°C
Dew Point: 57°F , 14°C
Humidity: 78%
Barometer: 29.80 inHg , 1009.1 hPa
Clouds: Clear
Visibility: 10 miles , 16 km
2024/06/18 01:35 KHZX 180135Z AUTO 12006KT 10SM CLR 18/14 A2980 RMK AO2
 
KOLG - Solon Springs, Wisconsin, USA
Distance from station: SE 48mi, 77km
Updated: Mon, 17-Jun-2024 8:35pm CDT
Clear
Clear
 Wind from ENE
Wind: ENE 6 mph , 9 km/h
Temperature: 63°F , 17°C
Dew Point: 59°F , 15°C
Humidity: 88%
Barometer: 29.80 inHg , 1009.1 hPa
Clouds: Clear
Visibility: 10 miles , 16 km
2024/06/18 01:35 KOLG 180135Z AUTO 06005KT 10SM CLR 17/15 A2980 RMK AO1